Time;durP1;ratioP1;P1;durP2;ratioP2;P2;SDS_P1;SDS_P2;PMS_P1;PMS_P2;Temp;Humidity;BMP_temperature;BMP_pressure;BME280_temperature;BME280_humidity;BME280_pressure;Samples;Min_cycle;Max_cycle;Signal;HPM_P1;HPM_P2
2020/12/24 00:00:05;;;;;;;10.52;1.70;;;23.40;74.30;;;;;;5068114;28;20880;-84
2020/12/24 00:02:32;;;;;;;8.23;1.50;;;23.40;72.80;;;;;;5065375;28;20571;-85
2020/12/24 00:04:59;;;;;;;8.27;1.80;;;23.30;73.10;;;;;;5069030;28;20957;-83
2020/12/24 00:07:26;;;;;;;10.17;2.00;;;23.30;72.80;;;;;;5068000;28;20906;-85
2020/12/24 00:09:53;;;;;;;10.10;2.00;;;23.50;73.30;;;;;;5069308;28;20374;-82
2020/12/24 00:12:20;;;;;;;14.98;2.35;;;23.40;74.00;;;;;;5068589;28;20382;-83
2020/12/24 00:14:47;;;;;;;10.48;1.50;;;23.40;73.80;;;;;;5067359;28;20896;-84
2020/12/24 00:17:14;;;;;;;11.98;1.85;;;23.60;76.00;;;;;;5058602;28;20399;-84
2020/12/24 00:19:41;;;;;;;10.20;2.00;;;23.80;70.30;;;;;;5067634;28;20752;-82
2020/12/24 00:22:08;;;;;;;9.07;1.70;;;24.20;70.80;;;;;;5050942;28;20410;-86
2020/12/24 00:24:35;;;;;;;8.57;2.17;;;24.70;70.20;;;;;;5068152;28;20394;-84
2020/12/24 00:27:03;;;;;;;8.38;1.75;;;25.00;69.10;;;;;;5068008;28;20397;-85
2020/12/24 00:29:32;;;;;;;10.50;2.22;;;25.50;67.40;;;;;;5051133;28;20385;-87
2020/12/24 00:31:59;;;;;;;7.45;1.30;;;25.70;67.70;;;;;;5068943;28;20864;-88
2020/12/24 00:34:26;;;;;;;8.23;1.80;;;26.20;64.60;;;;;;5069584;28;20390;-86
2020/12/24 00:36:53;;;;;;;10.93;1.90;;;26.20;63.60;;;;;;5069640;28;20393;-85
2020/12/24 00:39:20;;;;;;;6.43;1.45;;;26.80;60.30;;;;;;5072403;28;20392;-87
2020/12/24 00:41:47;;;;;;;9.00;1.65;;;26.90;61.70;;;;;;5072551;28;20418;-88
2020/12/24 00:44:15;;;;;;;8.00;1.63;;;27.00;58.80;;;;;;5071363;28;20404;-85
2020/12/24 00:46:42;;;;;;;8.87;1.40;;;26.70;59.60;;;;;;5071636;28;20409;-85
2020/12/24 00:49:09;;;;;;;5.63;1.60;;;26.90;61.20;;;;;;5072154;28;20392;-86
2020/12/24 00:51:36;;;;;;;6.27;1.50;;;26.90;59.10;;;;;;5071349;28;20401;-84
2020/12/24 00:54:03;;;;;;;10.63;1.60;;;27.00;63.70;;;;;;5070392;28;20388;-85
2020/12/24 00:56:30;;;;;;;7.70;1.67;;;27.10;59.90;;;;;;5065908;28;20453;-85
2020/12/24 00:58:57;;;;;;;8.32;1.38;;;26.90;58.90;;;;;;5063431;28;20393;-84
2020/12/24 01:01:24;;;;;;;4.35;1.40;;;26.50;58.20;;;;;;5072313;28;20821;-85
2020/12/24 01:03:51;;;;;;;6.35;1.80;;;25.90;62.10;;;;;;5071945;28;20427;-85
2020/12/24 01:06:18;;;;;;;7.70;1.33;;;25.30;65.40;;;;;;5066247;28;20378;-85
2020/12/24 01:08:46;;;;;;;8.68;1.65;;;25.40;64.80;;;;;;5049184;28;20403;-86
2020/12/24 01:11:13;;;;;;;9.85;1.70;;;25.40;62.90;;;;;;5069626;28;20453;-87
2020/12/24 01:13:40;;;;;;;8.55;1.55;;;25.20;63.90;;;;;;5071907;28;20457;-84
2020/12/24 01:16:09;;;;;;;6.85;1.17;;;25.20;64.00;;;;;;5071451;28;20389;-86
2020/12/24 01:18:36;;;;;;;9.18;1.60;;;25.00;62.50;;;;;;5068245;28;20450;-86
2020/12/24 01:21:03;;;;;;;8.43;1.67;;;25.00;68.70;;;;;;5070278;28;20908;-85
2020/12/24 01:23:30;;;;;;;9.00;1.55;;;25.10;64.80;;;;;;5068840;28;20469;-86
2020/12/24 01:25:57;;;;;;;8.07;1.70;;;25.10;66.30;;;;;;5071189;28;20398;-83
2020/12/24 01:28:24;;;;;;;7.97;1.58;;;25.00;64.60;;;;;;5071908;28;20773;-85
2020/12/24 01:30:51;;;;;;;5.95;1.50;;;25.00;65.10;;;;;;5070364;28;20898;-84
2020/12/24 01:33:20;;;;;;;8.95;1.88;;;25.20;65.30;;;;;;5067564;28;20441;-84
2020/12/24 01:35:47;;;;;;;6.35;1.35;;;25.20;64.10;;;;;;5041048;28;20924;-83
2020/12/24 01:38:14;;;;;;;7.00;1.33;;;25.20;63.20;;;;;;5070723;28;20390;-84
2020/12/24 01:40:41;;;;;;;7.88;1.40;;;25.30;61.80;;;;;;5070336;28;20435;-86
2020/12/24 01:43:08;;;;;;;8.45;1.88;;;25.20;64.20;;;;;;5058993;28;20404;-85
2020/12/24 01:45:36;;;;;;;8.35;1.27;;;25.10;64.00;;;;;;5065729;28;20912;-84
2020/12/24 01:48:03;;;;;;;6.53;1.40;;;25.10;70.50;;;;;;5070803;28;20394;-85
2020/12/24 01:50:30;;;;;;;7.75;1.45;;;25.20;61.50;;;;;;5064405;28;20391;-85
2020/12/24 01:52:58;;;;;;;7.43;1.50;;;25.10;67.80;;;;;;5066358;28;20393;-86
2020/12/24 01:55:25;;;;;;;7.25;1.50;;;25.30;65.90;;;;;;5070207;28;20889;-85
2020/12/24 01:57:53;;;;;;;7.37;1.13;;;25.40;65.20;;;;;;5071169;28;20439;-85
2020/12/24 02:00:20;;;;;;;5.95;1.40;;;25.50;65.30;;;;;;5071859;28;20370;-84
2020/12/24 02:02:47;;;;;;;7.18;1.33;;;25.60;64.50;;;;;;5071240;28;20425;-84
2020/12/24 02:05:14;;;;;;;3.95;1.40;;;25.60;64.50;;;;;;5057445;28;20893;-87
2020/12/24 02:07:41;;;;;;;7.40;1.55;;;25.60;60.70;;;;;;5068864;28;20398;-84
2020/12/24 02:10:08;;;;;;;6.93;1.30;;;25.30;60.90;;;;;;5071212;28;20461;-84
2020/12/24 02:12:35;;;;;;;4.03;1.10;;;25.30;65.80;;;;;;5071336;28;20363;-84
2020/12/24 02:15:02;;;;;;;9.45;1.17;;;25.40;63.90;;;;;;5063640;28;20401;-86
2020/12/24 02:17:29;;;;;;;5.33;1.10;;;25.40;63.40;;;;;;5070505;28;21255;-85
2020/12/24 02:19:56;;;;;;;4.53;0.93;;;25.60;62.40;;;;;;5071023;28;20932;-84
2020/12/24 02:22:23;;;;;;;5.73;1.07;;;25.60;63.40;;;;;;5066115;28;21157;-86
2020/12/24 02:24:51;;;;;;;5.18;1.10;;;25.70;60.30;;;;;;5051134;28;20964;-84
2020/12/24 02:27:17;;;;;;;4.53;1.13;;;25.80;60.20;;;;;;5069292;28;20884;-85
2020/12/24 02:29:44;;;;;;;5.47;1.00;;;25.80;60.50;;;;;;5070944;28;20742;-84
2020/12/24 02:32:11;;;;;;;6.05;1.25;;;25.90;60.00;;;;;;5070717;28;20378;-84
2020/12/24 02:34:38;;;;;;;4.95;1.02;;;25.90;58.20;;;;;;5069757;28;20386;-84
2020/12/24 02:37:08;;;;;;;4.70;1.10;;;25.90;58.00;;;;;;5070985;28;20398;-85
2020/12/24 02:39:36;;;;;;;5.10;1.30;;;26.00;57.30;;;;;;5069550;28;21041;-85
2020/12/24 02:42:03;;;;;;;5.47;1.30;;;26.00;59.80;;;;;;5070835;28;20406;-83
2020/12/24 02:44:30;;;;;;;3.72;0.90;;;26.10;60.50;;;;;;5069843;28;20420;-84
2020/12/24 02:46:57;;;;;;;5.22;1.13;;;26.20;58.00;;;;;;5068218;28;20402;-84
2020/12/24 02:49:23;;;;;;;6.97;1.23;;;26.10;57.70;;;;;;5054500;28;20532;-85
2020/12/24 02:51:50;;;;;;;5.70;1.23;;;26.00;56.20;;;;;;5070403;28;20400;-85
2020/12/24 02:54:17;;;;;;;5.60;0.90;;;25.80;57.70;;;;;;5070633;28;20779;-85
2020/12/24 02:56:44;;;;;;;4.32;1.17;;;25.80;60.40;;;;;;5054961;28;20387;-84
2020/12/24 02:59:11;;;;;;;6.43;1.17;;;25.90;59.10;;;;;;5050417;28;20372;-85
2020/12/24 03:01:38;;;;;;;9.77;1.57;;;26.00;58.20;;;;;;5049305;28;20400;-84
2020/12/24 03:04:05;;;;;;;5.83;1.20;;;26.10;59.50;;;;;;5058232;28;20433;-85
2020/12/24 03:06:32;;;;;;;4.18;1.02;;;26.20;58.70;;;;;;5070326;28;20805;-85
2020/12/24 03:08:59;;;;;;;5.78;1.23;;;26.40;54.70;;;;;;5054413;28;20782;-84
2020/12/24 03:11:26;;;;;;;7.20;1.15;;;26.20;56.30;;;;;;5066258;28;20457;-85
2020/12/24 03:13:53;;;;;;;2.83;1.00;;;26.10;55.20;;;;;;5068744;28;20408;-86
2020/12/24 03:16:22;;;;;;;3.23;0.93;;;26.00;56.40;;;;;;5066238;28;20401;-85
2020/12/24 03:18:48;;;;;;;5.05;0.90;;;25.80;58.20;;;;;;5070218;28;20366;-84
2020/12/24 03:21:15;;;;;;;6.05;1.33;;;25.90;59.40;;;;;;5069760;28;20460;-84
2020/12/24 03:23:42;;;;;;;4.13;0.95;;;26.00;56.30;;;;;;5069506;28;20437;-84
2020/12/24 03:26:09;;;;;;;7.93;1.40;;;26.10;56.70;;;;;;5067831;28;20390;-84
2020/12/24 03:28:36;;;;;;;4.10;0.87;;;26.10;58.40;;;;;;5069660;28;20378;-85
2020/12/24 03:31:03;;;;;;;3.22;1.00;;;26.30;55.80;;;;;;5067570;28;20443;-84
2020/12/24 03:33:30;;;;;;;4.68;1.08;;;26.40;60.50;;;;;;5065990;28;20390;-86
2020/12/24 03:35:57;;;;;;;3.13;0.90;;;26.50;56.70;;;;;;5067346;28;20398;-85
2020/12/24 03:38:24;;;;;;;4.47;1.02;;;26.50;53.90;;;;;;5069359;28;20400;-85
2020/12/24 03:40:51;;;;;;;6.00;1.27;;;26.60;57.90;;;;;;5045916;28;20834;-85
2020/12/24 03:43:18;;;;;;;6.00;1.20;;;26.50;56.70;;;;;;5066652;28;20404;-85
2020/12/24 03:45:48;;;;;;;5.43;1.20;;;26.30;59.70;;;;;;5065090;28;20885;-85
2020/12/24 03:48:15;;;;;;;5.90;1.33;;;26.20;58.40;;;;;;5043002;28;20963;-85
2020/12/24 03:50:42;;;;;;;7.35;1.40;;;26.30;61.60;;;;;;5067011;28;20404;-84
2020/12/24 03:53:09;;;;;;;4.05;0.80;;;26.60;59.60;;;;;;5065254;28;20396;-84
2020/12/24 03:55:36;;;;;;;5.63;1.25;;;26.90;52.40;;;;;;5066846;28;20894;-84
2020/12/24 03:58:03;;;;;;;6.00;1.35;;;27.00;57.60;;;;;;5057187;28;20996;-83
2020/12/24 04:00:30;;;;;;;8.32;1.80;;;26.60;59.50;;;;;;5067453;28;20477;-84
2020/12/24 04:02:57;;;;;;;9.13;1.83;;;26.50;64.20;;;;;;5068110;28;20406;-84
2020/12/24 04:05:24;;;;;;;13.18;2.25;;;26.10;66.00;;;;;;5066959;28;20397;-84
2020/12/24 04:07:51;;;;;;;9.13;1.73;;;25.80;67.40;;;;;;5066033;28;20397;-85
2020/12/24 04:10:18;;;;;;;8.32;2.30;;;25.50;66.80;;;;;;5066701;28;20406;-84
2020/12/24 04:12:45;;;;;;;13.30;2.60;;;25.40;68.40;;;;;;5064010;28;20394;-82
2020/12/24 04:15:12;;;;;;;8.85;2.00;;;25.40;68.50;;;;;;5066940;28;20889;-84
2020/12/24 04:17:39;;;;;;;9.60;2.10;;;25.40;69.80;;;;;;5067851;28;20394;-82
2020/12/24 04:20:06;;;;;;;8.80;1.67;;;25.50;66.90;;;;;;5068689;28;20423;-82
2020/12/24 04:22:33;;;;;;;7.78;1.60;;;25.60;68.60;;;;;;5068952;28;20434;-84
2020/12/24 04:25:01;;;;;;;10.30;1.70;;;25.60;66.00;;;;;;5068888;28;20742;-82
2020/12/24 04:27:29;;;;;;;7.00;1.70;;;25.60;66.40;;;;;;5069051;28;20385;-83
2020/12/24 04:29:56;;;;;;;14.77;1.85;;;25.60;67.20;;;;;;5069132;28;20386;-83
2020/12/24 04:32:23;;;;;;;6.00;1.40;;;25.60;67.10;;;;;;5068986;28;20468;-83
2020/12/24 04:34:50;;;;;;;9.20;2.00;;;25.50;68.70;;;;;;5068891;28;20370;-83
2020/12/24 04:37:22;;;;;;;8.05;2.10;;;25.50;68.50;;;;;;5050875;28;20415;-83
2020/12/24 04:39:48;;;;;;;11.15;2.00;;;25.70;67.70;;;;;;5069120;28;20383;-83
2020/12/24 04:42:16;;;;;;;9.00;1.58;;;25.70;69.90;;;;;;5068945;28;20409;-82
2020/12/24 04:44:43;;;;;;;7.73;1.63;;;25.70;64.80;;;;;;5068968;28;20380;-83
2020/12/24 04:47:10;;;;;;;11.90;2.25;;;25.70;61.50;;;;;;5069045;28;20371;-83
2020/12/24 04:49:39;;;;;;;13.43;2.08;;;25.50;67.70;;;;;;5068930;28;20370;-82
2020/12/24 04:52:08;;;;;;;9.13;2.28;;;25.30;70.80;;;;;;5069046;28;20398;-83
2020/12/24 04:54:36;;;;;;;13.07;1.92;;;25.40;69.10;;;;;;5068892;28;20447;-83
2020/12/24 04:57:07;;;;;;;10.65;2.42;;;25.50;72.20;;;;;;5068971;28;20848;-84
2020/12/24 04:59:35;;;;;;;11.20;2.08;;;25.40;71.20;;;;;;5069055;28;20379;-82
2020/12/24 05:02:03;;;;;;;10.90;2.25;;;25.40;70.90;;;;;;5068810;28;20477;-84
2020/12/24 05:04:31;;;;;;;14.65;2.22;;;25.40;70.20;;;;;;5068579;28;20464;-83
2020/12/24 05:07:02;;;;;;;9.48;2.47;;;25.40;71.40;;;;;;5068719;28;20476;-83
2020/12/24 05:09:29;;;;;;;9.98;1.90;;;25.60;72.90;;;;;;5069077;28;20366;-83
2020/12/24 05:11:56;;;;;;;9.23;1.92;;;25.80;71.10;;;;;;5068623;28;20736;-84
2020/12/24 05:14:28;;;;;;;8.40;2.20;;;25.90;72.70;;;;;;5068661;28;20884;-84
2020/12/24 05:17:08;;;;;;;10.48;1.92;;;25.90;70.60;;;;;;5070884;28;20377;-83
2020/12/24 05:19:47;;;;;;;14.88;2.33;;;25.90;71.00;;;;;;5068633;28;20382;-83
2020/12/24 05:22:19;;;;;;;9.33;2.13;;;25.70;69.80;;;;;;5068342;28;20500;-84
2020/12/24 05:24:46;;;;;;;8.60;1.80;;;25.60;71.30;;;;;;5070511;28;20760;-83
2020/12/24 05:27:20;;;;;;;10.93;2.22;;;25.30;71.00;;;;;;5072201;28;20385;-84
2020/12/24 05:29:50;;;;;;;13.23;2.47;;;25.10;72.30;;;;;;5072237;28;20377;-83
2020/12/24 05:32:27;;;;;;;8.98;2.05;;;25.20;72.90;;;;;;5072196;28;20366;-84
2020/12/24 05:35:12;;;;;;;11.05;2.03;;;25.30;72.10;;;;;;5072146;28;20880;-83
2020/12/24 05:37:40;;;;;;;11.52;2.03;;;25.30;71.30;;;;;;5072311;28;20396;-84
2020/12/24 05:40:33;;;;;;;10.75;2.30;;;25.30;71.40;;;;;;5071848;28;20465;-83
2020/12/24 05:43:01;;;;;;;7.90;1.63;;;25.30;71.40;;;;;;5069900;28;20481;-83
2020/12/24 05:45:30;;;;;;;8.77;2.25;;;25.20;73.10;;;;;;5071707;28;20402;-84
2020/12/24 05:48:15;;;;;;;9.10;1.83;;;25.20;71.90;;;;;;5071742;28;20390;-84
2020/12/24 05:50:44;;;;;;;12.17;2.27;;;25.10;72.80;;;;;;5070047;28;20417;-82
2020/12/24 05:53:13;;;;;;;12.75;3.28;;;25.20;73.70;;;;;;5064834;28;20402;-82
2020/12/24 05:55:42;;;;;;;10.65;1.98;;;25.40;72.20;;;;;;5067565;28;20416;-83
2020/12/24 05:58:09;;;;;;;13.73;2.97;;;25.50;70.80;;;;;;5068502;28;20409;-83
2020/12/24 06:00:41;;;;;;;9.95;2.20;;;25.40;70.80;;;;;;5071359;28;20831;-84
2020/12/24 06:03:19;;;;;;;13.82;3.30;;;25.40;71.00;;;;;;5069780;28;20406;-83
2020/12/24 06:05:53;;;;;;;9.63;3.05;;;25.40;71.10;;;;;;5068643;28;20386;-82
2020/12/24 06:08:25;;;;;;;13.27;4.93;;;25.20;69.30;;;;;;5065728;28;20396;-82
2020/12/24 06:11:10;;;;;;;13.35;2.85;;;25.20;69.40;;;;;;5071116;28;20519;-83
2020/12/24 06:13:52;;;;;;;23.27;10.68;;;25.30;70.00;;;;;;5071086;28;20711;-83
2020/12/24 06:16:27;;;;;;;43.70;23.85;;;25.20;71.80;;;;;;5069599;28;20390;-83
2020/12/24 06:18:59;;;;;;;11.15;2.25;;;25.20;70.70;;;;;;5069219;28;20895;-82
2020/12/24 06:21:29;;;;;;;10.03;3.70;;;25.10;71.40;;;;;;5069547;28;20410;-82
2020/12/24 06:24:01;;;;;;;21.03;10.03;;;25.10;70.40;;;;;;5070026;28;20390;-83
2020/12/24 06:26:49;;;;;;;14.65;2.75;;;25.10;71.50;;;;;;5069762;28;20874;-82
2020/12/24 06:29:18;;;;;;;7.80;1.90;;;25.10;72.50;;;;;;5070805;28;20393;-83
2020/12/24 06:31:47;;;;;;;47.92;24.52;;;25.10;71.50;;;;;;5069832;28;20531;-82
2020/12/24 06:34:30;;;;;;;10.32;2.40;;;25.00;71.10;;;;;;5060344;28;20370;-83
2020/12/24 06:37:11;;;;;;;7.40;2.08;;;25.10;71.80;;;;;;5065256;28;20543;-82
2020/12/24 06:39:40;;;;;;;13.73;3.65;;;25.10;70.50;;;;;;5069464;28;20440;-82
2020/12/24 06:42:27;;;;;;;14.05;4.72;;;25.00;71.10;;;;;;5065285;28;20912;-83
2020/12/24 06:44:54;;;;;;;11.70;2.70;;;24.90;72.70;;;;;;5072131;28;20883;-83
2020/12/24 06:47:21;;;;;;;8.85;2.25;;;24.80;71.20;;;;;;5069935;28;20477;-82
2020/12/24 06:49:48;;;;;;;10.73;1.77;;;24.70;72.10;;;;;;5070005;28;20465;-83
2020/12/24 06:52:29;;;;;;;11.10;2.53;;;24.70;73.20;;;;;;5071342;28;20865;-84
2020/12/24 06:55:16;;;;;;;12.93;2.55;;;24.70;73.20;;;;;;5071114;28;20366;-83
2020/12/24 06:57:44;;;;;;;12.07;2.60;;;24.60;73.30;;;;;;5065403;28;20394;-84
2020/12/24 07:00:17;;;;;;;15.63;2.55;;;24.60;72.50;;;;;;5067417;28;20389;-82
2020/12/24 07:02:49;;;;;;;9.32;2.10;;;24.50;73.90;;;;;;5067506;28;20467;-83
2020/12/24 07:05:40;;;;;;;9.60;2.10;;;24.60;74.10;;;;;;5065851;28;20393;-83
2020/12/24 07:08:08;;;;;;;8.98;1.70;;;24.50;73.80;;;;;;5066679;28;20471;-83
2020/12/24 07:10:49;;;;;;;9.05;2.13;;;24.50;74.50;;;;;;5068737;28;20415;-84
2020/12/24 07:13:35;;;;;;;9.25;1.70;;;24.50;73.80;;;;;;5064553;28;20393;-84
2020/12/24 07:16:03;;;;;;;9.52;2.13;;;24.50;72.50;;;;;;5070149;28;20394;-83
2020/12/24 07:18:36;;;;;;;8.60;1.87;;;24.50;73.40;;;;;;5069274;28;20397;-83
2020/12/24 07:21:10;;;;;;;8.80;1.60;;;24.40;73.70;;;;;;5065833;28;20401;-83
2020/12/24 07:23:39;;;;;;;9.25;1.67;;;24.40;73.80;;;;;;5058956;28;20382;-83
2020/12/24 07:26:09;;;;;;;8.95;1.90;;;24.30;74.00;;;;;;5068495;28;20394;-82
2020/12/24 07:28:40;;;;;;;10.63;2.25;;;24.30;73.80;;;;;;5069329;28;20524;-85
2020/12/24 07:31:10;;;;;;;8.48;2.03;;;24.30;74.20;;;;;;5070378;28;20879;-82
2020/12/24 07:33:45;;;;;;;9.25;2.00;;;24.20;74.60;;;;;;5075372;28;20390;-83
2020/12/24 07:36:12;;;;;;;15.43;2.17;;;24.10;74.30;;;;;;5062703;28;20471;-84
2020/12/24 07:38:39;;;;;;;13.27;2.38;;;24.10;75.50;;;;;;5072624;28;20399;-84
2020/12/24 07:41:16;;;;;;;12.45;2.25;;;24.10;75.20;;;;;;5082626;28;20879;-83
2020/12/24 07:43:43;;;;;;;9.95;2.30;;;24.10;75.70;;;;;;5085405;28;20389;-84
2020/12/24 07:46:10;;;;;;;9.70;1.92;;;24.10;75.20;;;;;;5069620;28;20466;-83
2020/12/24 07:48:38;;;;;;;7.55;1.80;;;24.00;74.60;;;;;;5069858;28;20461;-84
2020/12/24 07:51:09;;;;;;;10.68;2.15;;;24.00;75.50;;;;;;5068687;28;20448;-84
2020/12/24 07:53:36;;;;;;;10.70;2.22;;;23.90;75.70;;;;;;5051296;28;20901;-83
2020/12/24 07:56:08;;;;;;;10.25;2.15;;;23.80;76.80;;;;;;5069113;28;20386;-83
2020/12/24 07:58:36;;;;;;;10.38;1.80;;;23.80;76.60;;;;;;5062977;28;20743;-83
2020/12/24 08:01:05;;;;;;;9.90;2.13;;;23.70;77.20;;;;;;5070178;28;20463;-85
2020/12/24 08:03:32;;;;;;;8.73;2.10;;;23.60;77.60;;;;;;5065830;28;20410;-81
2020/12/24 08:06:04;;;;;;;8.80;1.48;;;23.60;77.40;;;;;;5067231;28;20417;-81
2020/12/24 08:08:34;;;;;;;12.15;1.92;;;23.50;77.50;;;;;;5068851;28;20393;-81
2020/12/24 08:11:06;;;;;;;9.20;2.00;;;23.40;78.30;;;;;;5067870;28;20456;-81
2020/12/24 08:13:34;;;;;;;10.80;1.75;;;23.40;78.70;;;;;;5067910;28;20398;-80
2020/12/24 08:16:03;;;;;;;10.02;2.22;;;23.40;78.40;;;;;;5067701;28;20386;-81
2020/12/24 08:18:45;;;;;;;11.57;2.20;;;23.30;78.90;;;;;;5067774;28;20448;-81
2020/12/24 08:21:31;;;;;;;8.93;1.80;;;23.30;79.60;;;;;;5067352;28;20452;-81
2020/12/24 08:24:09;;;;;;;11.05;2.47;;;23.20;80.10;;;;;;5051803;28;20387;-81
2020/12/24 08:26:37;;;;;;;12.38;2.22;;;23.10;80.00;;;;;;5069434;28;20390;-81
2020/12/24 08:29:08;;;;;;;11.27;2.28;;;23.00;80.60;;;;;;5075693;28;21222;-81
2020/12/24 08:31:40;;;;;;;11.90;2.13;;;23.00;81.00;;;;;;5070805;28;20445;-80
2020/12/24 08:34:08;;;;;;;8.50;2.17;;;23.00;81.00;;;;;;5062023;28;20799;-82
2020/12/24 08:36:56;;;;;;;8.68;2.05;;;22.90;82.10;;;;;;5064338;28;20398;-82
2020/12/24 08:39:23;;;;;;;7.82;1.88;;;22.80;82.20;;;;;;5046796;28;20398;-81
2020/12/24 08:41:53;;;;;;;9.02;2.00;;;22.80;82.10;;;;;;5057701;28;20406;-82
2020/12/24 08:44:21;;;;;;;9.38;2.10;;;22.80;82.80;;;;;;5061321;28;20394;-81
2020/12/24 08:47:10;;;;;;;12.90;2.43;;;22.70;82.90;;;;;;5066847;28;20525;-81
2020/12/24 08:49:41;;;;;;;13.27;2.47;;;22.60;83.10;;;;;;5068554;28;20366;-81
2020/12/24 08:52:11;;;;;;;9.10;2.25;;;22.60;83.30;;;;;;5068850;28;20374;-79
2020/12/24 08:54:56;;;;;;;11.80;2.28;;;22.60;83.40;;;;;;5068098;28;20386;-79
2020/12/24 08:57:23;;;;;;;13.80;2.28;;;22.60;83.60;;;;;;5050789;28;20413;-80
2020/12/24 08:59:57;;;;;;;7.82;1.67;;;22.50;84.20;;;;;;5068542;28;20397;-82
2020/12/24 09:02:32;;;;;;;9.90;2.30;;;22.40;84.70;;;;;;5072828;28;20398;-82
2020/12/24 09:05:09;;;;;;;15.10;2.70;;;22.30;84.90;;;;;;5072767;28;20369;-82
2020/12/24 09:07:42;;;;;;;13.85;2.28;;;22.30;85.30;;;;;;5071867;28;20402;-81
2020/12/24 09:10:14;;;;;;;10.70;2.42;;;22.30;85.80;;;;;;5069881;28;20417;-81
2020/12/24 09:12:43;;;;;;;11.10;2.15;;;22.30;85.80;;;;;;5070615;28;20386;-81
2020/12/24 09:15:15;;;;;;;14.93;2.72;;;22.30;86.10;;;;;;5071519;28;20961;-79
2020/12/24 09:17:50;;;;;;;11.15;2.17;;;22.20;86.80;;;;;;5070093;28;20389;-81
2020/12/24 09:20:27;;;;;;;9.77;2.00;;;22.10;86.90;;;;;;5071027;28;20428;-83
2020/12/24 09:22:57;;;;;;;15.00;2.70;;;22.10;87.90;;;;;;5070197;28;20413;-82
2020/12/24 09:25:35;;;;;;;8.93;2.20;;;22.00;87.80;;;;;;5069899;28;20397;-80
2020/12/24 09:28:22;;;;;;;10.77;2.42;;;21.90;88.40;;;;;;5063327;28;20760;-81
2020/12/24 09:30:50;;;;;;;12.98;2.47;;;21.90;89.00;;;;;;5061502;28;20391;-82
2020/12/24 09:33:17;;;;;;;14.73;2.35;;;21.80;89.30;;;;;;5064028;28;20682;-81
2020/12/24 09:35:45;;;;;;;7.78;2.28;;;21.70;89.50;;;;;;5065009;28;20513;-81
2020/12/24 09:38:12;;;;;;;12.23;2.53;;;21.70;89.70;;;;;;5065817;28;20505;-81
2020/12/24 09:40:39;;;;;;;14.10;3.00;;;21.70;90.10;;;;;;5067907;28;20481;-80
2020/12/24 09:43:09;;;;;;;21.95;3.88;;;21.60;90.40;;;;;;5064544;28;20486;-80
2020/12/24 09:45:38;;;;;;;19.42;3.45;;;21.50;90.70;;;;;;5066838;28;20470;-80
2020/12/24 09:48:06;;;;;;;17.52;3.20;;;21.40;91.00;;;;;;5066390;28;20722;-81
2020/12/24 09:50:37;;;;;;;15.60;3.10;;;21.30;91.30;;;;;;5068482;28;20405;-81
2020/12/24 09:53:04;;;;;;;16.43;3.00;;;21.20;91.60;;;;;;5068788;28;20428;-81
2020/12/24 09:55:31;;;;;;;14.38;3.03;;;21.10;91.90;;;;;;5059083;28;20477;-81
2020/12/24 09:57:59;;;;;;;15.20;3.07;;;21.10;91.90;;;;;;5048659;28;20376;-80
2020/12/24 10:00:26;;;;;;;15.50;3.10;;;21.10;92.00;;;;;;5060279;28;20401;-81
2020/12/24 10:02:53;;;;;;;14.40;3.33;;;21.10;92.00;;;;;;5068608;28;20455;-80
2020/12/24 10:05:20;;;;;;;14.73;3.05;;;21.10;92.10;;;;;;5067017;28;20451;-81
2020/12/24 10:07:47;;;;;;;16.67;3.40;;;21.10;91.80;;;;;;5068312;28;20398;-81
2020/12/24 10:10:14;;;;;;;15.23;3.13;;;21.10;91.90;;;;;;5067078;28;20382;-81
2020/12/24 10:12:41;;;;;;;19.75;3.42;;;21.20;91.90;;;;;;5068134;28;20374;-81
2020/12/24 10:15:07;;;;;;;14.20;3.17;;;21.10;92.00;;;;;;5058593;28;20846;-81
2020/12/24 10:17:34;;;;;;;18.98;3.35;;;21.00;92.20;;;;;;5056735;28;20395;-82
2020/12/24 10:20:01;;;;;;;18.33;3.40;;;21.00;92.20;;;;;;5065015;28;20900;-81
2020/12/24 10:22:28;;;;;;;17.38;3.40;;;21.00;92.30;;;;;;5067418;28;20493;-82
2020/12/24 10:24:55;;;;;;;19.92;3.25;;;20.90;92.50;;;;;;5067349;28;20394;-83
2020/12/24 10:27:23;;;;;;;16.42;3.08;;;20.90;92.60;;;;;;5067914;28;20464;-82
2020/12/24 10:29:50;;;;;;;15.45;3.17;;;20.90;92.50;;;;;;5066417;28;20400;-83
2020/12/24 10:32:17;;;;;;;19.42;3.70;;;20.90;92.50;;;;;;5066699;28;20398;-81
2020/12/24 10:34:44;;;;;;;18.15;3.22;;;20.80;92.70;;;;;;5066659;28;20459;-81
2020/12/24 10:37:11;;;;;;;22.05;3.70;;;20.70;92.90;;;;;;5064768;28;20606;-81
2020/12/24 10:39:38;;;;;;;19.90;3.72;;;20.60;92.90;;;;;;5066137;28;20386;-81
2020/12/24 10:42:05;;;;;;;20.25;3.70;;;20.60;93.40;;;;;;5047783;28;20434;-81
2020/12/24 10:44:32;;;;;;;18.33;3.27;;;20.50;93.20;;;;;;5051622;28;20884;-81
2020/12/24 10:46:59;;;;;;;17.77;3.22;;;20.50;93.20;;;;;;5061339;28;20382;-81
2020/12/24 10:49:27;;;;;;;17.42;3.33;;;20.50;93.30;;;;;;5064442;28;20405;-82
2020/12/24 10:51:54;;;;;;;17.73;3.05;;;20.40;93.30;;;;;;5049574;28;20491;-80
2020/12/24 10:54:21;;;;;;;20.58;3.65;;;20.40;93.50;;;;;;5067916;28;20362;-82
2020/12/24 10:56:52;;;;;;;18.20;3.33;;;20.40;93.60;;;;;;5066995;28;20398;-81
2020/12/24 10:59:19;;;;;;;23.20;3.85;;;20.30;93.70;;;;;;5065352;28;20397;-83
2020/12/24 11:01:50;;;;;;;17.08;3.05;;;20.30;93.80;;;;;;5066171;28;20417;-81
2020/12/24 11:04:17;;;;;;;18.90;3.55;;;20.30;93.80;;;;;;5063924;28;20397;-81
2020/12/24 11:06:45;;;;;;;20.75;3.22;;;20.30;93.80;;;;;;5069422;28;20390;-81
2020/12/24 11:09:13;;;;;;;21.13;3.50;;;20.20;94.00;;;;;;5069307;28;20473;-80
2020/12/24 11:11:41;;;;;;;18.65;3.60;;;20.20;94.00;;;;;;5068161;28;20968;-82
2020/12/24 11:14:09;;;;;;;24.13;4.23;;;20.20;94.20;;;;;;5068583;28;20462;-81
2020/12/24 11:16:36;;;;;;;17.65;3.55;;;20.20;94.30;;;;;;5068646;28;20402;-81
2020/12/24 11:19:03;;;;;;;19.92;3.72;;;20.20;94.50;;;;;;5068924;28;20394;-81
2020/12/24 11:21:32;;;;;;;20.92;3.75;;;20.10;94.60;;;;;;5067147;28;20825;-81
2020/12/24 11:24:06;;;;;;;20.48;3.92;;;20.00;94.90;;;;;;5069413;28;20463;-82
2020/12/24 11:26:37;;;;;;;25.10;4.75;;;20.00;95.20;;;;;;5064832;28;20406;-81
2020/12/24 11:29:06;;;;;;;23.60;3.75;;;20.00;95.50;;;;;;5066858;28;20398;-81
2020/12/24 11:31:38;;;;;;;20.90;3.72;;;19.90;95.50;;;;;;5067761;28;20386;-81
2020/12/24 11:34:06;;;;;;;26.70;4.10;;;19.90;95.60;;;;;;5066699;28;20769;-82
2020/12/24 11:36:34;;;;;;;24.23;4.32;;;19.90;95.80;;;;;;5063146;28;20538;-82
2020/12/24 11:39:02;;;;;;;23.17;4.05;;;19.90;95.80;;;;;;5066904;28;20430;-81
2020/12/24 11:41:30;;;;;;;26.52;4.13;;;20.00;95.80;;;;;;5065699;28;20742;-81
2020/12/24 11:43:58;;;;;;;28.33;4.30;;;19.90;96.00;;;;;;5057333;28;20386;-81
2020/12/24 11:46:27;;;;;;;24.90;3.97;;;19.90;96.30;;;;;;5064054;28;20808;-81
2020/12/24 11:48:56;;;;;;;24.27;3.72;;;19.90;96.40;;;;;;5068022;28;20480;-82
2020/12/24 11:51:24;;;;;;;27.15;4.50;;;19.80;96.60;;;;;;5068777;28;20429;-82
2020/12/24 11:53:51;;;;;;;36.78;5.25;;;19.80;96.70;;;;;;5066660;28;20473;-81
2020/12/24 11:56:20;;;;;;;25.40;4.00;;;19.80;96.70;;;;;;5068838;28;20452;-81
2020/12/24 11:58:51;;;;;;;26.65;4.60;;;19.90;96.70;;;;;;5068242;28;20425;-81
2020/12/24 12:01:19;;;;;;;30.73;4.37;;;19.80;96.60;;;;;;5068352;28;20400;-81
2020/12/24 12:03:47;;;;;;;25.65;4.40;;;19.90;96.50;;;;;;5067328;28;20885;-81
2020/12/24 12:06:14;;;;;;;26.50;4.93;;;19.90;96.50;;;;;;5065687;28;20398;-81
2020/12/24 12:08:41;;;;;;;22.98;4.30;;;19.90;96.40;;;;;;5067982;28;20695;-81
2020/12/24 12:11:10;;;;;;;21.75;4.28;;;20.00;96.40;;;;;;5047373;28;20395;-81
2020/12/24 12:13:38;;;;;;;26.60;4.63;;;19.90;96.40;;;;;;5042295;28;20397;-82
2020/12/24 12:16:10;;;;;;;27.05;4.03;;;19.90;96.40;;;;;;5061890;28;20410;-82
2020/12/24 12:18:37;;;;;;;24.60;4.28;;;19.90;96.60;;;;;;5060774;28;20381;-81
2020/12/24 12:21:04;;;;;;;23.70;3.95;;;20.00;96.20;;;;;;5066101;28;20401;-81
2020/12/24 12:23:32;;;;;;;23.57;4.40;;;20.00;96.60;;;;;;5065048;28;20410;-81
2020/12/24 12:26:01;;;;;;;22.92;4.32;;;19.90;96.50;;;;;;5062862;28;20387;-81
2020/12/24 12:28:28;;;;;;;25.15;4.25;;;20.00;96.30;;;;;;5067886;28;20405;-81
2020/12/24 12:30:55;;;;;;;26.75;5.03;;;20.00;96.40;;;;;;5067770;28;20396;-81
2020/12/24 12:33:22;;;;;;;24.88;4.10;;;20.00;96.20;;;;;;5065613;28;20401;-81
2020/12/24 12:35:49;;;;;;;23.67;4.15;;;20.00;96.20;;;;;;5057291;28;20431;-81
2020/12/24 12:38:16;;;;;;;25.35;3.60;;;20.00;96.30;;;;;;5066920;28;20406;-81
2020/12/24 12:40:43;;;;;;;24.95;4.25;;;20.00;96.30;;;;;;5066579;28;20422;-81
2020/12/24 12:43:10;;;;;;;24.07;4.33;;;20.00;96.30;;;;;;5065695;28;20764;-82
2020/12/24 12:45:37;;;;;;;21.37;3.70;;;20.00;96.00;;;;;;5065488;28;21076;-81
2020/12/24 12:48:04;;;;;;;24.17;3.88;;;20.10;95.80;;;;;;5045828;28;20479;-82
2020/12/24 12:50:31;;;;;;;24.83;3.95;;;20.10;95.70;;;;;;5066468;28;20383;-82